»·PEaware :: RNGR811 KNGP-KNGP

RNGR811 :: KNGP-KNGP

FLIGHT INFORMATION

Flight Status: Arrived
Operator: Unknown
More flights by this operator :: More flights under this callsign
Pilot: USN Avenger (31125)
Aircraft: BEECH AIRCRAFT T-6A TEXAN
(TEX2)
More flights by this aircraft type
Origin: KNGP Corpus Christi NAS/Truax
United States
Destination: KNGP Corpus Christi NAS/Truax
United States
More flights between these airports :: More routes between these airports
Route: , MUSTANG2, KRKP,
File this flight plan on PilotEdge
Remarks:
Altitude:
(Current/Filed)
5,500ft
Speed:
(Current/Filed)
200kts
Departed: 27-Nov-23 10:29 AM
Arrived: 27-Nov-23 11:36 AM
Distance/Time
Traveled:
1nm/1:07
Distance/Time
To Go:
Arrived

Flight Plot

Page will automatically refresh every two minutes.

Flight plan parsing failed; only flown route is shown


Map Options




Map Legend


Flown Route
Filed Route
Departure Airport
Arrival Airport
Navaid (VOR, NDB)
Fix

Horizontal Profiles

Position Reports

Time Latitude Longitude Heading Altitude Ground
Speed
27-Nov-23 10:12 27.698782 -97.288139 179 22ft 0kts
27-Nov-23 10:13 27.698781 -97.288139 179 22ft 0kts
27-Nov-23 10:14 27.698780 -97.288139 179 22ft 0kts
27-Nov-23 10:15 27.698778 -97.288139 179 22ft 0kts
27-Nov-23 10:16 27.698777 -97.288139 179 22ft 0kts
27-Nov-23 10:17 27.698775 -97.288139 179 22ft 0kts
27-Nov-23 10:18 27.698773 -97.288139 179 22ft 0kts
27-Nov-23 10:19 27.698772 -97.288139 179 22ft 0kts
27-Nov-23 10:20 27.698770 -97.288139 179 22ft 0kts
27-Nov-23 10:21 27.698769 -97.288139 179 22ft 0kts
27-Nov-23 10:22 27.698767 -97.288139 179 22ft 0kts
27-Nov-23 10:23 27.698765 -97.288139 179 22ft 0kts
27-Nov-23 10:24 27.698764 -97.288139 179 22ft 0kts
27-Nov-23 10:25 27.698762 -97.288139 179 22ft 0kts
27-Nov-23 10:26 27.698761 -97.288139 179 22ft 0kts
27-Nov-23 10:27 27.698759 -97.288139 179 22ft 0kts
27-Nov-23 10:28 27.691815 -97.288225 180 58ft 115kts
27-Nov-23 10:29 27.656636 -97.254539 115 721ft 222kts
27-Nov-23 10:30 27.638214 -97.189430 107 2851ft 199kts
27-Nov-23 10:31 27.663842 -97.137603 37 5117ft 200kts
27-Nov-23 10:32 27.712763 -97.097526 30 5650ft 244kts
27-Nov-23 10:33 27.774136 -97.061665 23 5772ft 248kts
27-Nov-23 10:34 27.839638 -97.034405 20 6116ft 233kts
27-Nov-23 10:35 27.893218 -97.005629 27 8052ft 212kts
27-Nov-23 10:36 27.950442 -96.979550 333 8352ft 246kts
27-Nov-23 10:37 27.919644 -97.013898 170 7127ft 265kts
27-Nov-23 10:38 27.896671 -97.069386 303 8131ft 238kts
27-Nov-23 10:39 27.955384 -97.075318 30 9005ft 234kts
27-Nov-23 10:40 27.981721 -97.022380 98 6275ft 227kts
27-Nov-23 10:41 28.037075 -96.988609 11 3383ft 220kts
27-Nov-23 10:42 28.092312 -96.984571 342 2991ft 208kts
27-Nov-23 10:43 28.133056 -97.012452 311 2391ft 246kts
27-Nov-23 10:44 28.124539 -97.034976 190 1558ft 202kts
27-Nov-23 10:45 28.076346 -97.047606 287 1074ft 156kts
27-Nov-23 10:46 28.100172 -97.036699 154 466ft 115kts
27-Nov-23 10:47 28.091588 -97.038847 191 112ft 112kts
27-Nov-23 10:48 28.088999 -97.039305 190 34ft 104kts
27-Nov-23 10:49 28.079221 -97.053715 5 897ft 124kts
27-Nov-23 10:50 28.099191 -97.037880 176 311ft 104kts
27-Nov-23 10:51 28.068897 -97.044849 221 606ft 119kts
27-Nov-23 10:52 28.090052 -97.052573 22 808ft 123kts
27-Nov-23 10:53 28.087841 -97.039708 190 28ft 91kts
27-Nov-23 10:54 28.075198 -97.055352 353 858ft 124kts
27-Nov-23 10:55 28.102662 -97.044449 84 433ft 111kts
27-Nov-23 10:56 28.075737 -97.042178 192 228ft 125kts
27-Nov-23 10:57 28.087547 -97.054752 15 845ft 132kts
27-Nov-23 10:59 28.093000 -97.038568 191 75ft 103kts
27-Nov-23 11:00 28.071332 -97.053393 306 820ft 118kts
27-Nov-23 11:01 28.101769 -97.044834 77 525ft 118kts
27-Nov-23 11:02 28.077798 -97.041834 193 229ft 124kts
27-Nov-23 11:03 28.090817 -97.051392 18 772ft 123kts
27-Nov-23 11:04 28.088602 -97.039491 191 29ft 89kts
27-Nov-23 11:05 28.071861 -97.057528 342 772ft 135kts
27-Nov-23 11:06 28.102353 -97.045344 90 505ft 118kts
27-Nov-23 11:07 28.079257 -97.041418 191 144ft 122kts
27-Nov-23 11:08 28.079257 -97.041418 191 144ft 122kts
27-Nov-23 11:09 28.079257 -97.041418 191 144ft 122kts
27-Nov-23 11:10 28.079257 -97.041418 191 144ft 122kts
27-Nov-23 11:11 28.079257 -97.041418 191 144ft 122kts
27-Nov-23 11:12 28.079257 -97.041418 191 144ft 122kts
27-Nov-23 11:13 28.079257 -97.041418 191 144ft 122kts
27-Nov-23 11:14 28.079257 -97.041418 191 144ft 122kts
27-Nov-23 11:15 28.079257 -97.041418 191 144ft 122kts
27-Nov-23 11:16 28.077632 -97.054690 4 743ft 122kts
27-Nov-23 11:17 28.097608 -97.037692 170 269ft 106kts
27-Nov-23 11:18 28.069194 -97.048273 252 551ft 124kts
27-Nov-23 11:19 28.097124 -97.052670 18 720ft 117kts
27-Nov-23 11:20 28.084054 -97.040428 190 36ft 109kts
27-Nov-23 11:21 28.084519 -97.054961 13 745ft 151kts
27-Nov-23 11:22 28.136819 -97.050129 59 1308ft 211kts
27-Nov-23 11:23 28.100155 -97.003810 170 1513ft 240kts
27-Nov-23 11:23 28.044318 -97.005199 184 1538ft 240kts
27-Nov-23 11:25 27.970467 -97.031297 211 1360ft 250kts
27-Nov-23 11:26 27.921460 -97.085437 228 1020ft 242kts
27-Nov-23 11:26 27.878260 -97.122012 208 1016ft 236kts
27-Nov-23 11:28 27.805711 -97.151734 202 1073ft 238kts
27-Nov-23 11:29 27.751094 -97.187968 252 1186ft 224kts
27-Nov-23 11:29 27.736081 -97.240384 251 1023ft 198kts
27-Nov-23 11:30 27.715252 -97.297283 205 1047ft 195kts
27-Nov-23 11:31 27.672650 -97.261562 133 1017ft 199kts
27-Nov-23 11:33 27.675608 -97.254712 308 559ft 130kts
27-Nov-23 11:33 27.697467 -97.274361 315 968ft 114kts
27-Nov-23 11:34 27.695253 -97.291648 137 64ft 106kts
27-Nov-23 11:35 27.687346 -97.281945 39 22ft 0kts
27-Nov-23 11:36 27.687589 -97.281691 48 22ft 0kts

Navigation Log

Ident Type
Flight plan parsing failed, navigation log unavailable